createdAt,value
2018-12-04T00:00:37.577Z,71.20
2018-12-04T00:01:11.085Z,71.10
2018-12-04T00:01:44.563Z,71.40
2018-12-04T00:02:18.098Z,71.30
2018-12-04T00:02:51.525Z,71.10
2018-12-04T00:03:25.019Z,70.90
2018-12-04T00:03:58.538Z,70.90
2018-12-04T00:04:32.146Z,70.70
2018-12-04T00:05:06.021Z,70.00
2018-12-04T00:05:39.495Z,70.80
2018-12-04T00:06:13.030Z,69.40
2018-12-04T00:06:46.537Z,69.30
2018-12-04T00:07:20.051Z,69.20
2018-12-04T00:07:53.512Z,69.40
2018-12-04T00:08:26.939Z,69.40
2018-12-04T00:09:00.547Z,69.20
2018-12-04T00:09:34.077Z,69.30
2018-12-04T00:10:08.778Z,69.50
2018-12-04T00:10:42.205Z,69.30
2018-12-04T00:11:15.666Z,68.60
2018-12-04T00:11:49.165Z,68.30
2018-12-04T00:12:22.713Z,68.20
2018-12-04T00:12:57.034Z,68.30
2018-12-04T00:13:30.522Z,68.80
2018-12-04T00:14:04.514Z,69.20
2018-12-04T00:14:37.981Z,69.00
2018-12-04T00:15:11.521Z,68.50
2018-12-04T00:15:45.052Z,67.90
2018-12-04T00:16:18.566Z,67.50
2018-12-04T00:16:52.063Z,67.50
2018-12-04T00:17:25.525Z,67.60
2018-12-04T00:17:59.659Z,67.80
2018-12-04T00:18:33.193Z,67.90
2018-12-04T00:19:06.809Z,68.00
2018-12-04T00:19:40.305Z,68.30
2018-12-04T00:20:14.764Z,67.20
2018-12-04T00:20:48.244Z,66.90
2018-12-04T00:21:21.818Z,67.10
2018-12-04T00:21:55.283Z,67.00
2018-12-04T00:22:28.784Z,67.10
2018-12-04T00:23:02.242Z,67.10
2018-12-04T00:23:35.748Z,67.80
2018-12-04T00:24:09.678Z,67.80
2018-12-04T00:24:43.134Z,67.50
2018-12-04T00:25:16.667Z,67.20
2018-12-04T00:25:50.654Z,67.30
2018-12-04T00:26:24.306Z,66.70
2018-12-04T00:26:58.268Z,66.70
2018-12-04T00:27:31.834Z,66.50
2018-12-04T00:28:16.537Z,66.30
2018-12-04T00:28:50.353Z,66.30
2018-12-04T00:29:30.051Z,66.80
2018-12-04T00:30:04.139Z,67.30
2018-12-04T00:30:38.996Z,67.40
2018-12-04T00:31:12.703Z,67.30
2018-12-04T00:31:46.298Z,67.30
2018-12-04T00:32:19.842Z,66.80
2018-12-04T00:32:53.310Z,66.50
2018-12-04T00:33:26.790Z,66.70
2018-12-04T00:34:00.413Z,66.40
2018-12-04T00:34:38.880Z,66.60
2018-12-04T00:35:12.436Z,66.20
2018-12-04T00:35:45.951Z,65.70
2018-12-04T00:36:20.266Z,65.40
2018-12-04T00:36:53.745Z,65.60
2018-12-04T00:37:27.220Z,65.90
2018-12-04T00:38:01.259Z,66.00
2018-12-04T00:38:34.817Z,65.80
2018-12-04T00:39:08.327Z,65.50
2018-12-04T00:39:41.762Z,65.10
2018-12-04T00:40:15.274Z,65.00
2018-12-04T00:40:48.756Z,65.20
2018-12-04T00:41:22.201Z,65.50
2018-12-04T00:41:55.662Z,65.50
2018-12-04T00:42:29.273Z,65.40
2018-12-04T00:43:03.358Z,65.40
2018-12-04T00:43:36.919Z,65.60
2018-12-04T00:44:10.353Z,65.20
2018-12-04T00:44:43.819Z,64.80
2018-12-04T00:45:18.087Z,64.70
2018-12-04T00:45:51.585Z,65.00
2018-12-04T00:46:25.033Z,65.30
2018-12-04T00:46:58.475Z,65.70
2018-12-04T00:47:32.854Z,65.80
2018-12-04T00:48:06.480Z,66.00
2018-12-04T00:48:39.950Z,66.10
2018-12-04T00:49:13.426Z,65.70
2018-12-04T00:49:46.933Z,65.70
2018-12-04T00:50:20.393Z,65.40
2018-12-04T00:50:53.892Z,65.30
2018-12-04T00:51:27.338Z,65.80
2018-12-04T00:52:00.758Z,66.10
2018-12-04T00:52:34.295Z,66.20
2018-12-04T00:53:09.808Z,66.30
2018-12-04T00:53:44.087Z,66.20
2018-12-04T00:54:18.551Z,66.20
2018-12-04T00:54:52.050Z,66.20
2018-12-04T00:55:25.562Z,66.20
2018-12-04T00:55:59.839Z,66.20
2018-12-04T00:56:33.290Z,66.20
2018-12-04T00:57:06.835Z,66.50
2018-12-04T00:57:40.305Z,66.60
2018-12-04T00:58:13.910Z,66.50
2018-12-04T00:58:47.420Z,66.80
2018-12-04T00:59:20.958Z,66.90
2018-12-04T00:59:54.478Z,66.80
2018-12-04T01:00:28.204Z,66.70
2018-12-04T01:01:01.692Z,66.20
2018-12-04T01:01:35.189Z,66.00
2018-12-04T01:02:09.230Z,66.20
2018-12-04T01:02:43.217Z,66.20
2018-12-04T01:03:16.727Z,66.60
2018-12-04T01:03:50.240Z,66.40
2018-12-04T01:04:23.686Z,66.30
2018-12-04T01:04:57.160Z,66.30
2018-12-04T01:05:30.702Z,66.40
2018-12-04T01:06:04.282Z,66.50
2018-12-04T01:06:37.905Z,66.30
2018-12-04T01:07:11.370Z,66.50
2018-12-04T01:07:44.865Z,66.60
2018-12-04T01:08:18.937Z,66.50
2018-12-04T01:08:53.086Z,66.30
2018-12-04T01:09:26.609Z,66.60
2018-12-04T01:10:00.083Z,66.60
2018-12-04T01:10:33.522Z,66.30
2018-12-04T01:11:06.962Z,66.10
2018-12-04T01:11:40.667Z,66.00
2018-12-04T01:12:14.266Z,65.90
2018-12-04T01:12:47.854Z,65.90
2018-12-04T01:13:21.326Z,65.90
2018-12-04T01:13:54.837Z,66.20
2018-12-04T01:14:28.279Z,66.30
2018-12-04T01:15:01.763Z,66.30
2018-12-04T01:15:35.230Z,66.50
2018-12-04T01:16:09.201Z,66.60
2018-12-04T01:16:42.666Z,66.60
2018-12-04T01:17:16.400Z,66.90
2018-12-04T01:17:49.879Z,67.00
2018-12-04T01:18:23.379Z,66.70
2018-12-04T01:18:56.841Z,66.60
2018-12-04T01:19:30.309Z,66.20
2018-12-04T01:20:04.099Z,66.00
2018-12-04T01:20:38.111Z,66.20
2018-12-04T01:21:11.589Z,66.60
2018-12-04T01:21:45.014Z,66.90
2018-12-04T01:22:18.485Z,66.90
2018-12-04T01:22:51.992Z,67.00
2018-12-04T01:23:25.477Z,67.00
2018-12-04T01:23:59.057Z,67.00
2018-12-04T01:24:32.550Z,67.20
2018-12-04T01:25:06.796Z,66.90
2018-12-04T01:25:40.249Z,66.80
2018-12-04T01:26:13.703Z,67.20
2018-12-04T01:26:47.186Z,67.30
2018-12-04T01:27:21.735Z,67.10
2018-12-04T01:27:55.237Z,67.00
2018-12-04T01:28:28.724Z,66.70
2018-12-04T01:29:02.702Z,66.60
2018-12-04T01:29:36.433Z,66.20
2018-12-04T01:30:10.112Z,66.20
2018-12-04T01:30:43.574Z,66.60
2018-12-04T01:31:17.929Z,66.40
2018-12-04T01:31:51.377Z,66.50
2018-12-04T01:32:24.876Z,66.00
2018-12-04T01:32:58.423Z,65.70
2018-12-04T01:33:31.885Z,65.80
2018-12-04T01:34:06.141Z,66.10
2018-12-04T01:34:39.661Z,66.20
2018-12-04T01:35:13.218Z,66.20
2018-12-04T01:35:46.738Z,66.30
2018-12-04T01:36:20.191Z,65.80
2018-12-04T01:36:53.719Z,66.40
2018-12-04T01:37:27.263Z,66.50
2018-12-04T01:38:00.729Z,66.20
2018-12-04T01:38:34.840Z,66.30
2018-12-04T01:39:08.421Z,66.50
2018-12-04T01:39:41.904Z,66.70
2018-12-04T01:40:15.349Z,66.40
2018-12-04T01:40:48.867Z,66.40
2018-12-04T01:41:22.413Z,66.40
2018-12-04T01:41:56.405Z,66.30
2018-12-04T01:42:29.885Z,66.40
2018-12-04T01:43:03.517Z,66.40
2018-12-04T01:43:36.963Z,66.20
2018-12-04T01:44:10.492Z,65.80
2018-12-04T01:44:50.631Z,65.80
2018-12-04T01:45:24.590Z,66.00
2018-12-04T01:45:58.114Z,65.90
2018-12-04T01:46:31.630Z,66.80
2018-12-04T01:47:05.134Z,65.80
2018-12-04T01:47:38.647Z,65.60
2018-12-04T01:48:12.123Z,65.80
2018-12-04T01:48:45.615Z,65.80
2018-12-04T01:49:19.103Z,65.50
2018-12-04T01:49:52.583Z,65.20
2018-12-04T01:50:26.090Z,65.60
2018-12-04T01:50:59.558Z,65.90
2018-12-04T01:51:33.514Z,66.00
2018-12-04T01:52:07.059Z,66.10
2018-12-04T01:52:40.591Z,66.30
2018-12-04T01:53:14.066Z,66.30
2018-12-04T01:53:47.532Z,66.10
2018-12-04T01:54:21.160Z,65.60
2018-12-04T01:54:54.890Z,65.20
2018-12-04T01:55:28.409Z,65.20
2018-12-04T01:56:01.913Z,65.10
2018-12-04T01:56:35.415Z,65.10
2018-12-04T01:57:08.907Z,65.40
2018-12-04T01:57:42.391Z,65.50
2018-12-04T01:58:15.950Z,65.40
2018-12-04T01:58:49.447Z,65.50
2018-12-04T01:59:23.691Z,65.10
2018-12-04T01:59:57.205Z,64.80
2018-12-04T02:00:30.653Z,64.90
2018-12-04T02:01:04.117Z,64.90
2018-12-04T02:01:37.640Z,65.10
2018-12-04T02:02:11.107Z,65.50
2018-12-04T02:02:44.553Z,65.90
2018-12-04T02:03:18.039Z,65.10
2018-12-04T02:03:51.547Z,65.10
2018-12-04T02:04:25.134Z,65.60
2018-12-04T02:04:58.612Z,65.90
2018-12-04T02:05:32.089Z,66.00
2018-12-04T02:06:05.617Z,66.00
2018-12-04T02:06:39.760Z,66.10
2018-12-04T02:07:13.215Z,66.00
2018-12-04T02:07:46.735Z,66.00
2018-12-04T02:08:20.246Z,65.80
2018-12-04T02:08:53.719Z,65.90
2018-12-04T02:09:27.199Z,65.90
2018-12-04T02:10:00.708Z,65.80
2018-12-04T02:10:34.166Z,65.70
2018-12-04T02:11:07.647Z,65.60
2018-12-04T02:11:41.949Z,65.70
2018-12-04T02:12:15.483Z,65.60
2018-12-04T02:12:48.970Z,65.50
2018-12-04T02:13:22.488Z,65.30
2018-12-04T02:13:55.988Z,65.00
2018-12-04T02:14:29.478Z,64.90
2018-12-04T02:15:02.992Z,65.10
2018-12-04T02:15:36.461Z,65.20
2018-12-04T02:16:10.003Z,65.40
2018-12-04T02:16:43.429Z,65.40
2018-12-04T02:17:17.620Z,65.50
2018-12-04T02:17:51.050Z,65.70
2018-12-04T02:18:24.703Z,65.70
2018-12-04T02:18:58.904Z,65.70
2018-12-04T02:19:32.334Z,65.60
2018-12-04T02:20:06.014Z,65.30
2018-12-04T02:20:39.495Z,65.00
2018-12-04T02:21:13.413Z,65.40
2018-12-04T02:21:46.841Z,65.40
2018-12-04T02:22:20.339Z,65.20
2018-12-04T02:22:53.821Z,65.50
2018-12-04T02:23:27.295Z,65.50
2018-12-04T02:24:00.822Z,65.50
2018-12-04T02:24:34.349Z,65.70
2018-12-04T02:25:08.077Z,65.70
2018-12-04T02:25:41.628Z,65.70
2018-12-04T02:26:15.847Z,65.80
2018-12-04T02:26:49.286Z,65.80
2018-12-04T02:27:22.736Z,65.70
2018-12-04T02:27:56.361Z,65.60
2018-12-04T02:28:35.030Z,65.80
2018-12-04T02:29:08.554Z,65.80
2018-12-04T02:29:42.217Z,66.20
2018-12-04T02:30:15.832Z,66.10
2018-12-04T02:30:49.358Z,66.10
2018-12-04T02:31:22.929Z,66.00
2018-12-04T02:31:56.455Z,66.10
2018-12-04T02:32:30.945Z,66.10
2018-12-04T02:33:04.408Z,66.10
2018-12-04T02:33:38.348Z,65.70
2018-12-04T02:34:12.466Z,65.80
2018-12-04T02:34:46.496Z,65.70
2018-12-04T02:35:20.009Z,65.50
2018-12-04T02:35:53.544Z,65.80
2018-12-04T02:36:27.052Z,66.10
2018-12-04T02:37:00.525Z,65.90
2018-12-04T02:37:34.615Z,65.70
2018-12-04T02:38:08.121Z,66.10
2018-12-04T02:38:41.761Z,66.30
2018-12-04T02:39:15.384Z,66.50
2018-12-04T02:39:48.896Z,66.50
2018-12-04T02:40:22.355Z,66.40
2018-12-04T02:40:55.805Z,66.20
2018-12-04T02:41:29.461Z,66.00
2018-12-04T02:42:04.387Z,65.90
2018-12-04T02:42:37.878Z,65.90
2018-12-04T02:43:11.474Z,66.00
2018-12-04T02:43:45.441Z,66.20
2018-12-04T02:44:19.037Z,66.20
2018-12-04T02:44:52.518Z,66.10
2018-12-04T02:45:25.967Z,66.30
2018-12-04T02:45:59.477Z,66.00
2018-12-04T02:46:33.599Z,66.10
2018-12-04T02:47:07.115Z,66.40
2018-12-04T02:47:40.628Z,66.40
2018-12-04T02:48:14.143Z,66.50
2018-12-04T02:48:48.306Z,66.60
2018-12-04T02:49:21.820Z,66.50
2018-12-04T02:49:56.190Z,66.50
2018-12-04T02:50:30.586Z,66.50
2018-12-04T02:51:04.698Z,66.60
2018-12-04T02:51:38.519Z,66.40
2018-12-04T02:52:11.989Z,66.10
2018-12-04T02:52:45.482Z,65.70
2018-12-04T02:53:18.928Z,65.90
2018-12-04T02:53:52.404Z,66.40
2018-12-04T02:54:25.832Z,66.60
2018-12-04T02:54:59.886Z,66.60
2018-12-04T02:55:33.344Z,66.70
2018-12-04T02:56:06.842Z,66.70
2018-12-04T02:56:40.282Z,66.80
2018-12-04T02:57:13.954Z,66.70
2018-12-04T02:57:47.426Z,66.90
2018-12-04T02:58:20.898Z,67.00
2018-12-04T02:58:54.393Z,67.00
2018-12-04T02:59:27.893Z,66.90
2018-12-04T03:00:01.719Z,66.90
2018-12-04T03:00:35.660Z,66.80
2018-12-04T03:01:09.891Z,66.80
2018-12-04T03:01:43.483Z,66.80
2018-12-04T03:02:17.343Z,66.80
2018-12-04T03:02:50.905Z,66.90
2018-12-04T03:03:24.384Z,66.70
2018-12-04T03:03:57.845Z,66.70
2018-12-04T03:04:31.317Z,66.70
2018-12-04T03:05:05.744Z,66.60
2018-12-04T03:05:39.329Z,66.50
2018-12-04T03:06:12.820Z,66.40
2018-12-04T03:06:46.286Z,66.50
2018-12-04T03:07:19.909Z,66.60
2018-12-04T03:07:53.364Z,66.70
2018-12-04T03:08:27.043Z,66.70
2018-12-04T03:09:00.507Z,66.80
2018-12-04T03:09:34.171Z,66.70
2018-12-04T03:10:07.994Z,66.80
2018-12-04T03:10:41.538Z,66.80
2018-12-04T03:11:14.984Z,66.70
2018-12-04T03:11:49.172Z,66.70
2018-12-04T03:12:22.694Z,66.60
2018-12-04T03:12:56.193Z,67.00
2018-12-04T03:13:29.706Z,67.20
2018-12-04T03:14:03.890Z,67.10
2018-12-04T03:14:37.399Z,67.00
2018-12-04T03:15:10.880Z,67.00
2018-12-04T03:15:44.483Z,67.10
2018-12-04T03:16:17.993Z,67.30
2018-12-04T03:16:51.462Z,67.30
2018-12-04T03:17:24.897Z,67.30
2018-12-04T03:17:58.371Z,67.20
2018-12-04T03:18:31.820Z,67.20
2018-12-04T03:19:05.337Z,67.50
2018-12-04T03:20:18.654Z,67.60
2018-12-04T03:20:52.149Z,67.60
2018-12-04T03:21:25.566Z,67.60
2018-12-04T03:21:59.067Z,67.50
2018-12-04T03:22:32.707Z,67.50
2018-12-04T03:23:06.245Z,67.50
2018-12-04T03:23:39.736Z,67.60
2018-12-04T03:24:13.242Z,67.60
2018-12-04T03:24:46.752Z,67.30
2018-12-04T03:25:20.267Z,67.20
2018-12-04T03:25:53.889Z,67.50
2018-12-04T03:26:27.377Z,67.80
2018-12-04T03:27:00.837Z,67.60
2018-12-04T03:27:34.306Z,67.50
2018-12-04T03:28:07.781Z,67.70
2018-12-04T03:28:41.334Z,67.50
2018-12-04T03:29:14.833Z,67.60
2018-12-04T03:29:48.286Z,67.80
2018-12-04T03:30:21.735Z,67.50
2018-12-04T03:30:55.324Z,67.50
2018-12-04T03:31:28.784Z,67.40
2018-12-04T03:32:02.238Z,67.40
2018-12-04T03:32:35.685Z,67.40
2018-12-04T03:33:09.548Z,67.50
2018-12-04T03:33:43.245Z,67.60
2018-12-04T03:34:16.763Z,67.90
2018-12-04T03:34:50.211Z,67.90
2018-12-04T03:35:23.695Z,67.80
2018-12-04T03:35:57.117Z,67.70
2018-12-04T03:36:31.244Z,67.70
2018-12-04T03:37:04.877Z,67.80
2018-12-04T03:37:38.342Z,67.50
2018-12-04T03:38:11.783Z,68.20
2018-12-04T03:38:45.325Z,67.50
2018-12-04T03:39:18.859Z,67.40
2018-12-04T03:39:52.301Z,67.50
2018-12-04T03:40:25.798Z,67.60
2018-12-04T03:40:59.303Z,67.60
2018-12-04T03:41:32.808Z,67.30
2018-12-04T03:42:06.760Z,67.50
2018-12-04T03:42:40.201Z,67.60
2018-12-04T03:43:14.042Z,67.30
2018-12-04T03:43:47.516Z,67.20
2018-12-04T03:44:20.991Z,67.30
2018-12-04T03:44:54.440Z,67.30
2018-12-04T03:45:28.091Z,67.50
2018-12-04T03:46:01.874Z,67.40
2018-12-04T03:46:35.377Z,67.30
2018-12-04T03:47:08.906Z,67.40
2018-12-04T03:47:42.365Z,67.30
2018-12-04T03:48:15.814Z,67.20
2018-12-04T03:48:49.244Z,67.30
2018-12-04T03:49:22.669Z,67.50
2018-12-04T03:49:56.197Z,67.60
2018-12-04T03:50:29.737Z,67.60
2018-12-04T03:51:03.243Z,67.50
2018-12-04T03:51:36.695Z,67.50
2018-12-04T03:52:10.819Z,67.60
2018-12-04T03:52:44.398Z,67.70
2018-12-04T03:53:17.840Z,67.70
2018-12-04T03:53:51.348Z,67.70
2018-12-04T03:54:24.859Z,67.70
2018-12-04T03:54:58.369Z,67.90
2018-12-04T03:55:32.035Z,68.00
2018-12-04T03:56:05.547Z,67.80
2018-12-04T03:56:39.216Z,67.80
2018-12-04T03:57:12.736Z,68.00
2018-12-04T03:57:46.341Z,68.10
2018-12-04T03:58:19.803Z,67.90
2018-12-04T03:58:53.268Z,68.00
2018-12-04T03:59:27.267Z,68.00
2018-12-04T04:00:01.012Z,68.00
2018-12-04T04:00:34.693Z,68.20
2018-12-04T04:01:08.214Z,68.10
2018-12-04T04:01:42.171Z,68.10
2018-12-04T04:02:15.710Z,69.00
2018-12-04T04:02:49.166Z,68.20
2018-12-04T04:03:22.590Z,68.10
2018-12-04T04:03:56.155Z,68.10
2018-12-04T04:04:29.609Z,68.20
2018-12-04T04:05:03.074Z,68.20
2018-12-04T04:05:36.578Z,67.90
2018-12-04T04:06:10.135Z,67.90
2018-12-04T04:06:43.635Z,68.00
2018-12-04T04:07:17.156Z,68.20
2018-12-04T04:07:50.634Z,68.20
2018-12-04T04:08:24.063Z,68.00
2018-12-04T04:08:58.235Z,68.00
2018-12-04T04:09:32.713Z,68.20
2018-12-04T04:10:08.185Z,68.10
2018-12-04T04:10:41.686Z,68.20
2018-12-04T04:11:15.152Z,68.10
2018-12-04T04:11:48.670Z,68.20
2018-12-04T04:12:22.913Z,68.00
2018-12-04T04:12:56.957Z,67.80
2018-12-04T04:13:30.428Z,67.90
2018-12-04T04:14:04.081Z,68.00
2018-12-04T04:14:37.538Z,68.10
2018-12-04T04:15:11.010Z,68.10
2018-12-04T04:15:44.599Z,68.10
2018-12-04T04:16:18.108Z,68.30
2018-12-04T04:16:51.562Z,68.30
2018-12-04T04:17:25.058Z,68.30
2018-12-04T04:17:58.574Z,68.30
2018-12-04T04:18:32.083Z,68.30
2018-12-04T04:19:05.525Z,68.30
2018-12-04T04:19:38.962Z,68.20
2018-12-04T04:20:12.560Z,68.10
2018-12-04T04:20:46.151Z,68.00
2018-12-04T04:21:19.638Z,68.30
2018-12-04T04:21:53.111Z,68.30
2018-12-04T04:22:26.658Z,68.40
2018-12-04T04:23:00.093Z,68.50
2018-12-04T04:23:33.610Z,68.10
2018-12-04T04:24:07.846Z,68.00
2018-12-04T04:24:44.979Z,68.10
2018-12-04T04:25:18.443Z,68.30
2018-12-04T04:25:52.280Z,68.40
2018-12-04T04:26:25.739Z,68.30
2018-12-04T04:26:59.280Z,68.40
2018-12-04T04:27:32.750Z,68.40
2018-12-04T04:28:06.935Z,68.30
2018-12-04T04:28:40.529Z,68.30
2018-12-04T04:29:14.102Z,68.30
2018-12-04T04:29:47.643Z,68.10
2018-12-04T04:30:21.159Z,68.00
2018-12-04T04:30:54.819Z,68.80
2018-12-04T04:31:28.296Z,68.30
2018-12-04T04:32:01.759Z,68.50
2018-12-04T04:32:35.253Z,68.30
2018-12-04T04:33:09.496Z,68.30
2018-12-04T04:33:43.018Z,68.30
2018-12-04T04:34:16.502Z,68.30
2018-12-04T04:34:50.144Z,68.30
2018-12-04T04:35:23.727Z,68.10
2018-12-04T04:35:59.108Z,68.00
2018-12-04T04:36:32.610Z,68.70
2018-12-04T04:37:06.108Z,68.00
2018-12-04T04:37:40.337Z,68.00
2018-12-04T04:38:13.828Z,68.20
2018-12-04T04:38:47.257Z,68.60
2018-12-04T04:39:20.681Z,68.70
2018-12-04T04:39:54.191Z,68.60
2018-12-04T04:40:27.757Z,68.60
2018-12-04T04:41:01.864Z,68.50
2018-12-04T04:41:35.933Z,68.50
2018-12-04T04:42:09.514Z,68.40
2018-12-04T04:42:42.987Z,68.30
2018-12-04T04:43:16.438Z,68.40
2018-12-04T04:43:49.974Z,68.30
2018-12-04T04:44:23.455Z,68.30
2018-12-04T04:44:57.049Z,68.20
2018-12-04T04:45:30.482Z,68.30
2018-12-04T04:46:04.375Z,68.10
2018-12-04T04:46:38.598Z,68.30
2018-12-04T04:47:12.137Z,68.30
2018-12-04T04:47:46.280Z,68.20
2018-12-04T04:48:19.755Z,68.10
2018-12-04T04:48:53.443Z,68.20
2018-12-04T04:49:26.921Z,68.40
2018-12-04T04:50:00.448Z,68.10
2018-12-04T04:50:33.981Z,67.70
2018-12-04T04:51:08.474Z,68.50
2018-12-04T04:51:41.945Z,67.70
2018-12-04T04:52:15.464Z,67.90
2018-12-04T04:52:48.963Z,67.90
2018-12-04T04:53:22.475Z,67.80
2018-12-04T04:53:55.954Z,67.90
2018-12-04T04:54:29.437Z,67.90
2018-12-04T04:55:03.008Z,68.00
2018-12-04T04:55:36.835Z,67.90
2018-12-04T04:56:10.306Z,68.00
2018-12-04T04:56:43.751Z,68.00
2018-12-04T04:57:17.437Z,68.10
2018-12-04T04:57:51.559Z,68.10
2018-12-04T04:58:25.048Z,68.10
2018-12-04T04:58:58.554Z,68.10
2018-12-04T04:59:32.041Z,68.10
2018-12-04T05:00:06.202Z,68.00
2018-12-04T05:00:39.694Z,67.80
2018-12-04T05:01:13.293Z,68.00
2018-12-04T05:01:46.972Z,68.10
2018-12-04T05:02:20.443Z,68.20
2018-12-04T05:02:53.923Z,67.90
2018-12-04T05:08:31.448Z,68.10
2018-12-04T05:09:07.322Z,67.90
2018-12-04T05:09:40.740Z,68.30
2018-12-04T05:10:14.147Z,68.50
2018-12-04T05:10:47.695Z,68.60
2018-12-04T05:11:21.684Z,68.60
2018-12-04T05:11:55.165Z,68.70
2018-12-04T05:12:29.723Z,68.80
2018-12-04T05:13:03.372Z,68.70
2018-12-04T05:13:36.851Z,68.90
2018-12-04T05:14:10.473Z,68.70
2018-12-04T05:14:43.954Z,69.00
2018-12-04T05:15:17.472Z,68.80
2018-12-04T05:15:50.978Z,68.70
2018-12-04T05:16:24.634Z,68.60
2018-12-04T05:16:58.122Z,68.70
2018-12-04T05:17:31.634Z,68.70
2018-12-04T05:18:05.133Z,68.50
2018-12-04T05:18:38.582Z,68.30
2018-12-04T05:19:12.123Z,68.20
2018-12-04T05:19:45.614Z,68.10
2018-12-04T05:20:19.156Z,67.90
2018-12-04T05:20:52.659Z,67.70
2018-12-04T05:21:26.131Z,67.70
2018-12-04T05:21:59.774Z,67.60
2018-12-04T05:22:33.498Z,67.70
2018-12-04T05:23:07.009Z,67.50
2018-12-04T05:23:40.507Z,67.30
2018-12-04T05:24:13.993Z,68.00
2018-12-04T05:24:47.494Z,67.20
2018-12-04T05:25:20.996Z,66.90
2018-12-04T05:25:54.778Z,66.90
2018-12-04T05:26:28.257Z,66.90
2018-12-04T05:27:01.803Z,66.90
2018-12-04T05:27:35.354Z,66.80
2018-12-04T05:28:08.815Z,66.30
2018-12-04T05:28:42.295Z,66.30
2018-12-04T05:29:15.727Z,66.60
2018-12-04T05:29:49.276Z,66.70
2018-12-04T05:30:23.433Z,66.60
2018-12-04T05:30:57.091Z,66.40
2018-12-04T05:31:30.581Z,66.20
2018-12-04T05:32:04.069Z,67.00
2018-12-04T05:32:38.425Z,66.50
2018-12-04T05:33:11.859Z,66.70
2018-12-04T05:33:45.471Z,66.80
2018-12-04T05:34:19.743Z,66.60
2018-12-04T05:34:53.262Z,66.40
2018-12-04T05:35:26.782Z,66.30
2018-12-04T05:36:00.229Z,66.40
2018-12-04T05:36:33.690Z,65.90
2018-12-04T05:37:07.170Z,65.80
2018-12-04T05:37:40.935Z,65.90
2018-12-04T05:38:14.436Z,66.00
2018-12-04T05:38:47.971Z,65.80
2018-12-04T05:39:21.437Z,65.80
2018-12-04T05:39:55.639Z,66.10
2018-12-04T05:40:29.171Z,66.20
2018-12-04T05:41:02.687Z,66.00
2018-12-04T05:41:36.163Z,66.00
2018-12-04T05:42:09.740Z,66.00
2018-12-04T05:42:43.198Z,66.00
2018-12-04T05:43:17.421Z,66.10
2018-12-04T05:43:51.578Z,65.80
2018-12-04T05:44:25.121Z,65.70
2018-12-04T05:44:58.639Z,65.90
2018-12-04T05:45:32.723Z,66.10
2018-12-04T05:46:06.448Z,66.00
2018-12-04T05:46:39.935Z,65.90
2018-12-04T05:47:13.735Z,65.80
2018-12-04T05:47:47.227Z,65.80
2018-12-04T05:48:20.720Z,65.60
2018-12-04T05:48:54.287Z,65.60
2018-12-04T05:49:28.257Z,65.50
2018-12-04T05:50:01.764Z,65.60
2018-12-04T05:50:35.716Z,65.60
2018-12-04T05:51:09.210Z,65.60
2018-12-04T05:51:43.524Z,65.70
2018-12-04T05:52:17.527Z,65.60
2018-12-04T05:53:02.225Z,65.60
2018-12-04T05:53:36.741Z,65.60
2018-12-04T05:54:14.311Z,65.80
2018-12-04T05:54:47.766Z,65.80
2018-12-04T05:55:21.264Z,65.80
2018-12-04T05:55:54.758Z,65.70
2018-12-04T05:56:28.274Z,65.70
2018-12-04T05:57:01.731Z,65.70
2018-12-04T05:57:35.181Z,65.80
2018-12-04T05:58:09.030Z,66.00
2018-12-04T05:58:42.562Z,66.10
2018-12-04T05:59:16.254Z,66.10
2018-12-04T05:59:49.794Z,66.40
2018-12-04T06:00:23.308Z,66.00
2018-12-04T06:00:56.806Z,66.20
2018-12-04T06:01:30.264Z,65.80
2018-12-04T06:02:03.865Z,66.10
2018-12-04T06:02:37.385Z,66.00
2018-12-04T06:03:11.130Z,66.00
2018-12-04T06:03:44.638Z,65.80
2018-12-04T06:04:18.630Z,66.00
2018-12-04T06:04:52.123Z,65.90
2018-12-04T06:05:25.589Z,66.10
2018-12-04T06:05:59.070Z,66.10
2018-12-04T06:06:32.519Z,66.20
2018-12-04T06:07:05.993Z,66.30
2018-12-04T06:07:39.429Z,66.30
2018-12-04T06:08:12.894Z,66.40
2018-12-04T06:08:46.714Z,66.50
2018-12-04T06:09:20.627Z,66.70
2018-12-04T06:09:54.094Z,66.70
2018-12-04T06:10:28.212Z,66.70
2018-12-04T06:11:01.671Z,66.90
2018-12-04T06:11:35.846Z,66.70
2018-12-04T06:12:09.451Z,67.30
2018-12-04T06:12:42.980Z,66.50
2018-12-04T06:13:16.480Z,66.90
2018-12-04T06:13:50.803Z,66.90
2018-12-04T06:14:24.703Z,66.90
2018-12-04T06:14:58.202Z,67.00
2018-12-04T06:15:31.742Z,67.20
2018-12-04T06:16:05.445Z,67.30
2018-12-04T06:16:38.938Z,67.50
2018-12-04T06:17:12.398Z,67.40
2018-12-04T06:17:46.125Z,67.50
2018-12-04T06:18:19.631Z,67.60
2018-12-04T06:18:53.731Z,67.50
2018-12-04T06:19:27.230Z,67.50
2018-12-04T06:20:01.219Z,67.50
2018-12-04T06:20:34.721Z,67.50
2018-12-04T06:21:08.175Z,67.60
2018-12-04T06:21:41.838Z,67.50
2018-12-04T06:22:15.278Z,67.60
2018-12-04T06:22:49.452Z,67.50
2018-12-04T06:23:22.935Z,67.60
2018-12-04T06:23:56.402Z,67.40
2018-12-04T06:24:29.866Z,67.40
2018-12-04T06:25:04.184Z,67.50
2018-12-04T06:25:37.691Z,67.50
2018-12-04T06:26:11.181Z,67.40
2018-12-04T06:26:44.677Z,67.10
2018-12-04T06:27:18.228Z,67.30
2018-12-04T06:27:51.770Z,67.50
2018-12-04T06:28:25.321Z,67.70
2018-12-04T06:28:58.778Z,67.60
2018-12-04T06:29:32.241Z,67.60
2018-12-04T06:30:07.123Z,67.70
2018-12-04T06:30:40.624Z,67.80
2018-12-04T06:31:14.158Z,67.80
2018-12-04T06:31:47.595Z,67.90
2018-12-04T06:32:21.209Z,68.10
2018-12-04T06:32:54.719Z,67.90
2018-12-04T06:33:28.328Z,67.60
2018-12-04T06:34:01.782Z,67.50
2018-12-04T06:34:35.403Z,67.70
2018-12-04T06:35:09.102Z,67.90
2018-12-04T06:35:42.603Z,68.20
2018-12-04T06:36:16.221Z,68.30
2018-12-04T06:36:49.751Z,68.10
2018-12-04T06:37:23.241Z,68.10
2018-12-04T06:37:56.724Z,68.00
2018-12-04T06:38:30.233Z,68.00
2018-12-04T06:39:05.911Z,68.00
2018-12-04T06:39:39.354Z,67.90
2018-12-04T06:40:12.820Z,68.10
2018-12-04T06:40:46.355Z,68.10
2018-12-04T06:41:19.843Z,68.00
2018-12-04T06:41:53.740Z,68.00
2018-12-04T06:42:27.226Z,68.10
2018-12-04T06:43:00.681Z,68.10
2018-12-04T06:43:34.705Z,67.90
2018-12-04T06:44:08.138Z,67.70
2018-12-04T06:44:46.623Z,67.90
2018-12-04T06:45:17.168Z,67.80
2018-12-04T06:45:50.754Z,67.60
2018-12-04T06:46:24.255Z,67.80
2018-12-04T06:46:57.765Z,67.80
2018-12-04T06:47:31.209Z,68.60
2018-12-04T06:48:04.718Z,67.50
2018-12-04T06:48:38.187Z,67.30
2018-12-04T06:49:12.189Z,67.30
2018-12-04T06:49:45.750Z,67.80
2018-12-04T06:50:19.285Z,68.00
2018-12-04T06:50:52.779Z,68.10
2018-12-04T06:51:26.371Z,68.20
2018-12-04T06:51:59.850Z,68.10
2018-12-04T06:52:33.372Z,67.80
2018-12-04T06:53:07.470Z,67.90
2018-12-04T06:53:40.968Z,67.80
2018-12-04T06:54:14.421Z,67.90
2018-12-04T06:54:47.888Z,67.80
2018-12-04T06:55:21.627Z,67.70
2018-12-04T06:55:55.165Z,67.80
2018-12-04T06:56:28.640Z,67.80
2018-12-04T06:57:02.180Z,67.70
2018-12-04T06:57:35.919Z,67.70
2018-12-04T06:58:09.540Z,67.90
2018-12-04T06:58:43.072Z,67.80
2018-12-04T06:59:16.694Z,67.70
2018-12-04T06:59:50.178Z,67.70
2018-12-04T07:00:24.242Z,67.80
2018-12-04T07:00:57.689Z,67.80
2018-12-04T07:01:31.167Z,67.80
2018-12-04T07:02:04.716Z,67.80
2018-12-04T07:02:38.181Z,67.60
2018-12-04T07:03:11.686Z,67.60
2018-12-04T07:03:45.214Z,67.70
2018-12-04T07:04:18.695Z,67.60
2018-12-04T07:04:52.221Z,67.60
2018-12-04T07:05:25.698Z,67.70
2018-12-04T07:05:59.227Z,67.70
2018-12-04T07:06:32.943Z,67.80
2018-12-04T07:07:06.432Z,68.00
2018-12-04T07:07:39.938Z,67.90
2018-12-04T07:08:13.403Z,67.90
2018-12-04T07:08:46.878Z,68.00
2018-12-04T07:09:20.388Z,67.90
2018-12-04T07:09:54.295Z,67.80
2018-12-04T07:10:27.755Z,67.80
2018-12-04T07:11:02.465Z,67.70
2018-12-04T07:11:36.134Z,67.70
2018-12-04T07:12:09.825Z,67.70
2018-12-04T07:12:44.270Z,67.90
2018-12-04T07:13:17.758Z,67.90
2018-12-04T07:13:51.224Z,67.70
2018-12-04T07:14:24.694Z,67.70
2018-12-04T07:14:58.185Z,67.70
2018-12-04T07:15:32.319Z,67.70
2018-12-04T07:16:05.841Z,67.80
2018-12-04T07:16:39.471Z,67.80
2018-12-04T07:17:13.579Z,67.80
2018-12-04T07:17:47.020Z,67.70
2018-12-04T07:18:21.672Z,67.80
2018-12-04T07:18:55.136Z,67.90
2018-12-04T07:19:28.652Z,67.90
2018-12-04T07:20:02.119Z,67.90